Time;durP1;ratioP1;P1;durP2;ratioP2;P2;SDS_P1;SDS_P2;PMS_P1;PMS_P2;Temp;Humidity;BMP_temperature;BMP_pressure;BME280_temperature;BME280_humidity;BME280_pressure;Samples;Min_cycle;Max_cycle;Signal;HPM_P1;HPM_P2
2022/04/10 00:00:15;;;;;;;7.27;2.60;;;;;;;7.02;63.61;100817.53;5076250;28;20652;-62
2022/04/10 00:02:44;;;;;;;4.27;2.43;;;;;;;7.07;63.37;100826.75;5079729;28;20648;-63
2022/04/10 00:05:11;;;;;;;6.80;2.47;;;;;;;7.13;63.42;100822.81;5076487;28;20219;-63
2022/04/10 00:07:41;;;;;;;5.93;2.63;;;;;;;7.05;63.55;100828.66;5074486;28;20225;-62
2022/04/10 00:10:20;;;;;;;5.47;2.50;;;;;;;6.98;63.84;100822.19;5075254;28;20230;-62
2022/04/10 00:12:48;;;;;;;4.83;2.63;;;;;;;7.03;64.23;100829.75;5078527;28;20206;-62
2022/04/10 00:15:16;;;;;;;6.43;2.77;;;;;;;6.92;64.06;100835.84;5077743;28;20204;-62
2022/04/10 00:17:44;;;;;;;6.53;2.67;;;;;;;6.96;63.97;100834.63;5083114;28;20247;-63
2022/04/10 00:20:12;;;;;;;4.53;2.03;;;;;;;7.03;63.73;100835.03;5080746;28;20658;-63
2022/04/10 00:22:42;;;;;;;5.20;2.27;;;;;;;6.56;65.04;100842.06;5079162;28;20215;-63
2022/04/10 00:25:11;;;;;;;4.23;2.70;;;;;;;6.53;65.36;100847.56;5076789;28;20289;-63
2022/04/10 00:27:39;;;;;;;7.83;2.30;;;;;;;6.60;65.05;100848.78;5078937;28;20218;-63
2022/04/10 00:30:08;;;;;;;6.87;2.60;;;;;;;6.29;66.81;100852.81;5083045;28;20211;-62
2022/04/10 00:32:36;;;;;;;6.20;2.43;;;;;;;6.78;64.94;100841.28;5082972;28;20659;-62
2022/04/10 00:35:06;;;;;;;4.90;2.47;;;;;;;6.66;65.46;100843.06;5081532;28;20210;-62
2022/04/10 00:37:34;;;;;;;4.83;2.50;;;;;;;6.15;66.97;100846.88;5075377;28;20726;-62
2022/04/10 00:40:04;;;;;;;6.03;2.53;;;;;;;6.40;66.56;100837.09;5078506;28;20213;-62
2022/04/10 00:42:32;;;;;;;5.37;2.80;;;;;;;6.26;66.81;100841.66;5080179;28;20210;-62
2022/04/10 00:45:05;;;;;;;5.70;2.63;;;;;;;6.40;66.20;100842.34;5078371;28;20258;-62
2022/04/10 00:47:34;;;;;;;5.20;2.13;;;;;;;6.01;67.50;100840.81;5078601;28;20207;-62
2022/04/10 00:50:04;;;;;;;6.50;2.57;;;;;;;5.97;67.62;100843.78;5079354;28;20215;-62
2022/04/10 00:52:33;;;;;;;6.50;2.60;;;;;;;6.33;67.11;100841.09;5084989;28;20210;-62
2022/04/10 00:55:01;;;;;;;5.53;2.90;;;;;;;6.39;66.49;100839.84;5080267;28;20221;-63
2022/04/10 00:57:31;;;;;;;5.63;3.17;;;;;;;6.49;66.30;100842.63;5080114;28;20226;-62
2022/04/10 00:59:59;;;;;;;6.53;2.87;;;;;;;6.56;65.69;100846.50;5076408;28;20253;-62
2022/04/10 01:02:27;;;;;;;7.30;2.70;;;;;;;6.54;65.86;100846.59;5078052;28;20578;-62
2022/04/10 01:04:55;;;;;;;7.17;2.90;;;;;;;6.52;65.55;100837.97;5078269;28;20292;-62
2022/04/10 01:07:27;;;;;;;7.70;3.47;;;;;;;6.65;65.59;100840.53;5080898;28;20329;-62
2022/04/10 01:09:56;;;;;;;6.50;3.23;;;;;;;6.62;65.49;100848.66;5072132;28;20302;-62
2022/04/10 01:12:24;;;;;;;4.43;2.60;;;;;;;6.42;66.16;100848.34;5079301;28;20202;-62
2022/04/10 01:14:53;;;;;;;5.53;3.17;;;;;;;6.11;67.48;100848.03;5079594;28;20203;-64
2022/04/10 01:17:35;;;;;;;;;;;;;;;;;;;;;
2022/04/10 01:20:04;;;;;;;4.87;3.10;;;;;;;6.53;65.82;100852.81;5078661;28;20200;-62
2022/04/10 01:22:36;;;;;;;7.77;3.00;;;;;;;6.46;66.01;100851.59;5077387;28;20199;-62
2022/04/10 01:25:06;;;;;;;6.93;3.20;;;;;;;6.42;66.19;100850.97;5076552;28;20686;-62
2022/04/10 01:27:38;;;;;;;8.03;2.90;;;;;;;6.58;65.58;100850.69;5080531;28;20213;-62
2022/04/10 01:30:07;;;;;;;10.63;3.30;;;;;;;6.32;65.70;100854.41;5076176;28;20667;-61
2022/04/10 01:32:35;;;;;;;5.23;2.97;;;;;;;6.30;66.56;100851.88;5075311;28;20211;-62
2022/04/10 01:35:05;;;;;;;8.40;3.20;;;;;;;6.37;66.40;100847.84;5077223;28;20462;-62
2022/04/10 01:37:35;;;;;;;6.23;3.30;;;;;;;6.36;66.54;100848.78;5081232;28;20722;-62
2022/04/10 01:40:05;;;;;;;7.40;3.40;;;;;;;6.37;66.17;100850.47;5077208;28;20218;-62
2022/04/10 01:42:33;;;;;;;6.90;3.40;;;;;;;6.31;66.54;100852.72;5077062;28;20480;-62
2022/04/10 01:45:01;;;;;;;6.27;3.37;;;;;;;6.41;65.81;100854.59;5075239;28;20207;-61
2022/04/10 01:47:29;;;;;;;5.57;3.00;;;;;;;6.33;66.43;100859.53;5077069;28;20272;-61
2022/04/10 01:49:56;;;;;;;6.70;3.40;;;;;;;6.22;66.60;100866.56;5081085;28;20252;-63
2022/04/10 01:52:24;;;;;;;10.10;3.97;;;;;;;6.05;66.63;100859.88;5077131;28;20211;-61
2022/04/10 01:54:53;;;;;;;8.00;3.80;;;;;;;6.13;66.76;100859.31;5078425;28;20214;-60
2022/04/10 01:57:24;;;;;;;7.47;3.63;;;;;;;6.27;65.96;100862.63;5076502;28;20211;-60
2022/04/10 01:59:56;;;;;;;5.87;3.43;;;;;;;6.38;65.79;100860.06;5074933;28;20255;-60
2022/04/10 02:02:24;;;;;;;8.30;3.73;;;;;;;6.18;66.37;100858.03;5075191;28;20239;-61
2022/04/10 02:04:52;;;;;;;8.47;3.70;;;;;;;6.04;66.84;100863.44;5082406;28;20225;-62
2022/04/10 02:07:20;;;;;;;6.63;3.60;;;;;;;6.23;66.25;100861.19;5076047;28;20303;-61
2022/04/10 02:09:48;;;;;;;7.33;4.00;;;;;;;6.09;66.59;100863.09;5078580;28;20437;-62
2022/04/10 02:12:16;;;;;;;7.70;3.70;;;;;;;6.02;67.14;100867.97;5074439;28;20916;-62
2022/04/10 02:14:45;;;;;;;8.70;4.50;;;;;;;5.98;67.41;100871.78;5076563;28;20298;-62
2022/04/10 02:17:12;;;;;;;6.77;3.63;;;;;;;5.94;66.74;100865.06;5079466;28;20224;-62
2022/04/10 02:19:40;;;;;;;7.47;3.97;;;;;;;6.17;66.53;100866.03;5076048;28;20235;-61
2022/04/10 02:22:07;;;;;;;6.97;3.73;;;;;;;6.05;66.84;100862.50;5080631;28;20773;-62
2022/04/10 02:24:38;;;;;;;10.17;4.47;;;;;;;6.08;66.28;100861.41;5077841;28;20207;-61
2022/04/10 02:27:06;;;;;;;7.13;3.93;;;;;;;6.21;66.22;100864.88;5074090;28;20221;-62
2022/04/10 02:29:34;;;;;;;8.33;4.00;;;;;;;6.23;65.97;100866.44;5076253;28;20207;-62
2022/04/10 02:32:03;;;;;;;10.73;4.57;;;;;;;6.22;66.08;100864.75;5078332;28;20215;-62
2022/04/10 02:34:31;;;;;;;6.30;3.90;;;;;;;6.14;66.28;100871.53;5075930;28;20683;-62
2022/04/10 02:36:59;;;;;;;9.63;3.87;;;;;;;6.17;66.19;100866.03;5076842;28;20493;-62
2022/04/10 02:39:26;;;;;;;11.40;4.17;;;;;;;5.79;67.05;100863.47;5073889;28;20222;-62
2022/04/10 02:41:54;;;;;;;7.13;3.77;;;;;;;5.99;66.84;100870.81;5079110;28;20207;-62
2022/04/10 02:44:22;;;;;;;10.23;5.50;;;;;;;5.93;67.25;100866.00;5079514;28;20230;-62
2022/04/10 02:46:50;;;;;;;8.03;4.20;;;;;;;6.12;66.37;100874.28;5081271;28;20571;-62
2022/04/10 02:49:19;;;;;;;7.27;4.47;;;;;;;5.73;67.72;100870.00;5077811;28;20207;-62
2022/04/10 02:51:55;;;;;;;6.87;3.70;;;;;;;6.02;66.55;100879.34;5078838;28;20310;-62
2022/04/10 02:54:23;;;;;;;6.37;3.97;;;;;;;6.08;66.06;100883.31;5081823;28;20309;-62
2022/04/10 02:56:51;;;;;;;9.13;3.90;;;;;;;6.04;66.27;100881.88;5083183;28;20527;-62
2022/04/10 02:59:23;;;;;;;6.87;4.03;;;;;;;5.99;66.55;100878.72;5077063;28;20223;-62
2022/04/10 03:01:51;;;;;;;5.97;3.93;;;;;;;5.76;66.89;100874.22;5081391;28;20240;-62
2022/04/10 03:04:20;;;;;;;7.60;4.23;;;;;;;5.87;67.03;100874.31;5082622;28;20214;-62
2022/04/10 03:06:48;;;;;;;7.70;3.93;;;;;;;5.97;66.42;100880.63;5076578;28;20233;-62
2022/04/10 03:09:16;;;;;;;6.53;4.00;;;;;;;5.98;66.39;100882.31;5081578;28;20568;-62
2022/04/10 03:11:45;;;;;;;9.10;4.57;;;;;;;5.92;66.21;100883.56;5081908;28;20276;-61
2022/04/10 03:14:12;;;;;;;7.20;4.00;;;;;;;5.82;66.70;100876.41;5079134;28;20495;-62
2022/04/10 03:16:40;;;;;;;7.83;4.20;;;;;;;5.90;66.44;100884.63;5081104;28;20234;-62
2022/04/10 03:19:08;;;;;;;7.27;3.97;;;;;;;5.72;66.66;100883.28;5081693;28;20694;-61
2022/04/10 03:21:37;;;;;;;6.70;3.70;;;;;;;4.97;69.36;100890.19;5080485;28;20620;-62
2022/04/10 03:24:13;;;;;;;11.03;4.00;;;;;;;5.24;68.80;100888.31;5080263;28;20199;-62
2022/04/10 03:26:40;;;;;;;7.97;4.47;;;;;;;5.44;67.78;100892.22;5081360;28;20209;-62
2022/04/10 03:29:09;;;;;;;8.73;4.43;;;;;;;5.53;67.92;100897.72;5080415;28;20210;-61
2022/04/10 03:31:37;;;;;;;9.47;4.40;;;;;;;5.66;67.16;100895.91;5077650;28;20554;-62
2022/04/10 03:34:05;;;;;;;8.03;4.40;;;;;;;5.76;66.74;100892.63;5078157;28;20689;-61
2022/04/10 03:36:33;;;;;;;8.00;4.57;;;;;;;5.74;66.93;100894.53;5078996;28;20234;-62
2022/04/10 03:39:02;;;;;;;7.30;4.37;;;;;;;5.71;66.86;100900.00;5080213;28;20575;-60
2022/04/10 03:41:29;;;;;;;8.03;4.67;;;;;;;5.76;66.71;100903.16;5078161;28;20577;-62
2022/04/10 03:43:57;;;;;;;7.53;4.43;;;;;;;5.81;66.66;100911.56;5079069;28;20209;-62
2022/04/10 03:46:25;;;;;;;10.30;4.70;;;;;;;5.73;66.83;100912.09;5076327;28;20633;-61
2022/04/10 03:48:53;;;;;;;7.07;4.30;;;;;;;5.80;66.51;100918.63;5078760;28;20207;-62
2022/04/10 03:51:21;;;;;;;7.53;4.27;;;;;;;5.67;67.03;100915.16;5079422;28;20234;-62
2022/04/10 03:53:48;;;;;;;7.73;4.70;;;;;;;5.73;67.01;100916.50;5078907;28;20702;-62
2022/04/10 03:56:17;;;;;;;8.23;4.40;;;;;;;5.66;67.06;100919.59;5081308;28;20207;-62
2022/04/10 03:58:45;;;;;;;8.13;5.33;;;;;;;5.37;68.59;100914.63;5081781;28;20229;-62
2022/04/10 04:01:13;;;;;;;7.13;4.37;;;;;;;5.49;68.00;100916.41;5080386;28;20213;-62
2022/04/10 04:03:41;;;;;;;9.60;5.20;;;;;;;5.62;67.15;100922.53;5079443;28;20214;-62
2022/04/10 04:06:10;;;;;;;8.07;4.70;;;;;;;5.58;67.37;100924.53;5082477;28;20677;-62
2022/04/10 04:08:40;;;;;;;9.67;4.40;;;;;;;5.65;66.39;100928.41;5075712;28;20296;-62
2022/04/10 04:11:08;;;;;;;8.27;5.03;;;;;;;5.33;67.90;100931.56;5080629;28;20740;-62
2022/04/10 04:13:40;;;;;;;11.77;5.53;;;;;;;5.43;67.33;100928.22;5080777;28;21509;-62
2022/04/10 04:16:08;;;;;;;8.13;4.90;;;;;;;5.38;67.38;100925.03;5079490;28;20305;-62
2022/04/10 04:18:38;;;;;;;8.03;4.83;;;;;;;5.13;68.99;100922.38;5083137;28;20210;-62
2022/04/10 04:21:06;;;;;;;9.27;5.03;;;;;;;5.09;69.02;100939.31;5079994;28;20233;-62
2022/04/10 04:23:37;;;;;;;10.50;5.20;;;;;;;5.16;68.95;100941.44;5078587;28;20209;-62
2022/04/10 04:26:05;;;;;;;7.53;5.13;;;;;;;5.21;68.47;100941.09;5078470;28;20601;-61
2022/04/10 04:28:36;;;;;;;11.47;5.60;;;;;;;5.43;68.06;100937.88;5077553;28;20654;-62
2022/04/10 04:31:05;;;;;;;8.87;5.00;;;;;;;5.18;68.73;100946.59;5081699;28;20486;-62
2022/04/10 04:33:34;;;;;;;9.03;5.43;;;;;;;5.26;68.23;100944.28;5077473;28;20213;-62
2022/04/10 04:36:02;;;;;;;10.10;5.73;;;;;;;5.13;68.71;100959.19;5082765;28;20237;-62
2022/04/10 04:38:29;;;;;;;7.83;4.80;;;;;;;4.78;69.98;100957.06;5075495;28;20206;-62
2022/04/10 04:40:57;;;;;;;7.60;4.93;;;;;;;4.88;69.71;100963.44;5078899;28;20263;-62
2022/04/10 04:43:25;;;;;;;9.80;5.20;;;;;;;4.95;69.66;100963.00;5078233;28;20317;-61
2022/04/10 04:45:53;;;;;;;10.33;5.27;;;;;;;5.26;68.33;100967.94;5084831;28;20446;-61
2022/04/10 04:48:22;;;;;;;9.47;5.27;;;;;;;5.38;67.33;100975.00;5082586;28;20237;-62
2022/04/10 04:50:50;;;;;;;8.80;5.07;;;;;;;5.23;68.30;100974.25;5077747;28;20238;-60
2022/04/10 04:53:18;;;;;;;11.77;5.07;;;;;;;5.02;69.16;100987.94;5080464;28;20266;-62
2022/04/10 04:55:47;;;;;;;8.77;5.27;;;;;;;5.45;68.20;100991.25;5077064;28;20636;-62
2022/04/10 04:58:20;;;;;;;8.63;5.00;;;;;;;5.22;68.66;100995.38;5081821;28;20261;-62
2022/04/10 05:00:56;;;;;;;9.33;4.60;;;;;;;5.16;68.32;100985.28;5076250;28;20229;-62
2022/04/10 05:03:26;;;;;;;9.30;5.03;;;;;;;5.39;67.93;100994.25;5077003;28;20213;-62
2022/04/10 05:05:53;;;;;;;11.47;5.40;;;;;;;5.20;68.49;101000.75;5075135;28;20241;-62
2022/04/10 05:08:21;;;;;;;9.70;4.60;;;;;;;5.65;66.97;100996.81;5072825;28;20864;-62
2022/04/10 05:10:49;;;;;;;10.88;5.78;;;;;;;5.43;67.62;101004.50;5074824;28;20928;-64
2022/04/10 05:13:17;;;;;;;8.17;5.23;;;;;;;5.42;68.17;101005.44;5076968;28;20206;-64
2022/04/10 05:15:44;;;;;;;8.70;5.50;;;;;;;5.44;68.12;101010.59;5080460;28;20310;-64
2022/04/10 05:18:13;;;;;;;8.17;4.93;;;;;;;5.64;66.86;101012.72;5077503;28;20342;-64
2022/04/10 05:20:43;;;;;;;10.23;5.40;;;;;;;5.65;66.77;101014.41;5082459;28;20718;-64
2022/04/10 05:23:10;;;;;;;9.47;5.03;;;;;;;5.49;67.51;101017.22;5082024;28;20839;-64
2022/04/10 05:25:38;;;;;;;9.83;5.20;;;;;;;5.56;67.65;101018.50;5085659;28;20216;-64
2022/04/10 05:28:07;;;;;;;8.00;4.97;;;;;;;5.11;69.00;101026.78;5071746;28;20236;-64
2022/04/10 05:30:34;;;;;;;15.70;9.03;;;;;;;5.14;69.91;101034.47;5074355;28;20210;-64
2022/04/10 05:33:02;;;;;;;32.30;17.40;;;;;;;5.39;68.56;101031.09;5085543;28;20205;-64
2022/04/10 05:35:30;;;;;;;14.20;9.33;;;;;;;5.41;68.80;101027.41;5087390;28;20206;-64
2022/04/10 05:37:59;;;;;;;10.00;6.47;;;;;;;5.48;68.38;101041.84;5080658;28;20308;-64
2022/04/10 05:40:27;;;;;;;11.47;5.43;;;;;;;5.54;68.67;101040.63;5075635;28;20584;-64
2022/04/10 05:42:55;;;;;;;14.33;5.87;;;;;;;5.53;69.12;101052.06;5082917;28;20727;-64
2022/04/10 05:45:23;;;;;;;8.30;5.70;;;;;;;5.51;68.47;101053.97;5077388;28;21065;-64
2022/04/10 05:48:05;;;;;;;8.70;5.00;;;;;;;5.67;68.31;101059.88;5076306;28;20251;-64
2022/04/10 05:50:32;;;;;;;11.43;5.40;;;;;;;5.65;68.99;101059.97;5080626;28;20658;-64
2022/04/10 05:53:03;;;;;;;10.67;5.17;;;;;;;5.36;69.72;101068.97;5077741;28;20272;-64
2022/04/10 05:55:31;;;;;;;8.87;5.20;;;;;;;5.55;68.13;101064.16;5076539;28;20202;-64
2022/04/10 05:57:58;;;;;;;9.77;5.80;;;;;;;5.59;68.68;101070.91;5078720;28;20213;-64
2022/04/10 06:00:26;;;;;;;9.33;6.07;;;;;;;5.56;68.65;101070.25;5073627;28;20682;-64
2022/04/10 06:02:54;;;;;;;10.10;5.83;;;;;;;5.53;68.82;101071.34;5078980;28;20659;-63
2022/04/10 06:05:22;;;;;;;9.33;6.03;;;;;;;5.50;69.42;101079.41;5080673;28;20234;-64
2022/04/10 06:07:50;;;;;;;10.47;6.23;;;;;;;5.70;69.66;101077.25;5078351;28;20300;-64
2022/04/10 06:10:19;;;;;;;9.67;6.23;;;;;;;5.73;69.10;101077.03;5079010;28;20494;-64
2022/04/10 06:12:47;;;;;;;11.93;6.57;;;;;;;5.66;69.95;101077.44;5077821;28;20321;-64
2022/04/10 06:15:17;;;;;;;12.13;6.40;;;;;;;5.64;70.38;101083.75;5075043;28;20210;-64
2022/04/10 06:17:45;;;;;;;12.60;6.60;;;;;;;5.36;71.90;101079.50;5074818;28;20264;-64
2022/04/10 06:20:13;;;;;;;10.03;6.30;;;;;;;5.32;72.39;101088.50;5077161;28;20654;-64
2022/04/10 06:22:41;;;;;;;9.93;6.83;;;;;;;5.63;71.65;101082.91;5075607;28;20288;-64
2022/04/10 06:25:10;;;;;;;13.63;7.53;;;;;;;5.87;70.29;101084.88;5079466;28;20225;-64
2022/04/10 06:27:39;;;;;;;11.90;7.10;;;;;;;5.63;70.29;101088.16;5077407;28;20301;-65
2022/04/10 06:30:07;;;;;;;15.30;8.40;;;;;;;6.00;69.44;101091.84;5076170;28;21631;-65
2022/04/10 06:32:45;;;;;;;11.70;7.07;;;;;;;6.10;68.64;101097.34;5079750;28;20711;-65
2022/04/10 06:35:13;;;;;;;11.97;7.27;;;;;;;6.19;68.65;101095.88;5072837;28;20221;-63
2022/04/10 06:37:43;;;;;;;11.83;7.60;;;;;;;6.37;68.42;101098.09;5076570;28;20223;-63
2022/04/10 06:40:11;;;;;;;15.10;7.97;;;;;;;6.13;69.39;101093.66;5078900;28;20207;-65
2022/04/10 06:42:41;;;;;;;12.93;8.03;;;;;;;6.34;68.36;101100.09;5080627;28;20217;-64
2022/04/10 06:45:09;;;;;;;14.10;7.83;;;;;;;6.32;68.48;101102.00;5077801;28;20202;-65
2022/04/10 06:47:37;;;;;;;13.53;7.93;;;;;;;6.54;67.85;101114.53;5078366;28;20218;-64
2022/04/10 06:50:05;;;;;;;12.87;7.90;;;;;;;5.75;70.50;101114.63;5078233;28;20224;-65
2022/04/10 06:52:35;;;;;;;12.03;7.80;;;;;;;5.96;70.04;101115.88;5075714;28;20210;-64
2022/04/10 06:55:03;;;;;;;15.47;8.93;;;;;;;5.71;71.17;101118.44;5075204;28;20311;-64
2022/04/10 06:57:30;;;;;;;14.20;8.23;;;;;;;5.68;71.64;101117.69;5075812;28;20341;-65
2022/04/10 06:59:59;;;;;;;14.70;8.30;;;;;;;6.16;70.10;101123.25;5083643;28;20206;-65
2022/04/10 07:02:27;;;;;;;18.67;10.13;;;;;;;6.42;69.26;101124.94;5079385;28;20231;-65
2022/04/10 07:04:55;;;;;;;19.07;9.00;;;;;;;6.48;69.09;101125.50;5075942;28;20215;-65
2022/04/10 07:07:25;;;;;;;14.43;8.67;;;;;;;6.29;69.61;101129.38;5077569;28;20638;-64
2022/04/10 07:09:53;;;;;;;16.03;8.93;;;;;;;6.58;68.51;101134.44;5074239;28;20298;-64
2022/04/10 07:12:21;;;;;;;18.13;9.60;;;;;;;6.68;68.72;101141.63;5071999;28;20302;-66
2022/04/10 07:14:49;;;;;;;15.00;8.43;;;;;;;6.47;69.69;101140.47;5078666;28;20298;-64
2022/04/10 07:17:19;;;;;;;14.63;8.20;;;;;;;6.59;68.88;101144.88;5073870;28;20402;-66
2022/04/10 07:19:47;;;;;;;12.80;6.30;;;;;;;6.44;69.42;101148.56;5076078;28;20206;-64
2022/04/10 07:24:59;;;;;;;9.27;4.50;;;;;;;6.62;69.50;101154.34;5076619;28;21809;-65
2022/04/10 07:27:29;;;;;;;9.77;3.73;;;;;;;6.58;69.26;101160.81;5078683;28;20207;-65
2022/04/10 07:29:57;;;;;;;8.50;3.87;;;;;;;6.58;69.31;101169.56;5083020;28;20670;-64
2022/04/10 07:32:26;;;;;;;6.33;2.97;;;;;;;6.54;69.49;101172.50;5077016;28;20305;-64
2022/04/10 07:34:54;;;;;;;8.10;3.20;;;;;;;6.51;70.41;101178.00;5079805;28;20222;-65
2022/04/10 07:37:21;;;;;;;10.57;3.47;;;;;;;6.58;70.12;101168.72;5081678;28;20323;-65
2022/04/10 07:39:49;;;;;;;8.90;3.57;;;;;;;6.38;71.10;101173.53;5078603;28;20631;-64
2022/04/10 07:42:17;;;;;;;8.27;3.10;;;;;;;6.26;72.01;101171.72;5078303;28;20586;-64
2022/04/10 07:45:06;;;;;;;8.23;3.77;;;;;;;6.28;72.85;101169.84;5084911;28;20214;-64
2022/04/10 07:47:34;;;;;;;9.50;4.03;;;;;;;6.51;71.80;101173.53;5078238;28;20214;-65
2022/04/10 07:50:02;;;;;;;9.80;4.00;;;;;;;6.02;74.93;101173.38;5079994;28;20656;-64
2022/04/10 07:52:30;;;;;;;6.47;3.20;;;;;;;6.28;74.34;101174.25;5078191;28;20228;-64
2022/04/10 07:54:57;;;;;;;8.43;4.17;;;;;;;6.39;74.17;101171.75;5082934;28;20214;-65
2022/04/10 07:57:25;;;;;;;9.13;3.47;;;;;;;6.50;74.07;101173.66;5078883;28;20213;-65
2022/04/10 07:59:53;;;;;;;6.73;3.20;;;;;;;6.62;72.74;101183.34;5077195;28;20199;-66
2022/04/10 08:02:21;;;;;;;6.13;3.40;;;;;;;6.66;71.55;101174.28;5078130;28;20703;-62
2022/04/10 08:04:50;;;;;;;6.87;3.10;;;;;;;6.57;72.13;101174.94;5082576;28;20215;-64
2022/04/10 08:07:18;;;;;;;9.17;3.87;;;;;;;6.04;75.15;101174.97;5081979;28;20221;-62
2022/04/10 08:09:45;;;;;;;7.03;3.50;;;;;;;6.26;75.25;101169.09;5077836;28;20610;-62
2022/04/10 08:12:13;;;;;;;8.33;3.53;;;;;;;6.46;74.47;101178.28;5083587;28;20232;-62
2022/04/10 08:14:43;;;;;;;7.60;3.20;;;;;;;6.34;75.45;101177.31;5082669;28;20632;-64
2022/04/10 08:17:12;;;;;;;6.47;3.57;;;;;;;6.21;76.03;101183.53;5081828;28;20268;-65
2022/04/10 08:19:39;;;;;;;7.83;3.50;;;;;;;6.58;74.72;101185.38;5077417;28;20204;-62
2022/04/10 08:22:08;;;;;;;7.70;3.10;;;;;;;6.20;76.20;101202.91;5081523;28;20258;-61
2022/04/10 08:24:36;;;;;;;6.70;3.00;;;;;;;6.36;75.86;101193.88;5081819;28;20293;-61
2022/04/10 08:27:04;;;;;;;7.97;3.47;;;;;;;6.08;77.35;101199.28;5081862;28;20256;-61
2022/04/10 08:29:32;;;;;;;6.13;3.20;;;;;;;6.37;75.90;101192.94;5077718;28;20196;-60
2022/04/10 08:31:59;;;;;;;8.13;3.50;;;;;;;5.80;77.48;101204.66;5076539;28;20289;-61
2022/04/10 08:34:27;;;;;;;9.43;3.43;;;;;;;5.99;77.19;101205.16;5079513;28;20211;-61
2022/04/10 08:36:55;;;;;;;6.90;3.03;;;;;;;6.05;76.96;101204.78;5088968;28;20226;-62
2022/04/10 08:39:26;;;;;;;6.43;3.77;;;;;;;5.96;78.03;101195.69;5081062;28;20211;-59
2022/04/10 08:41:57;;;;;;;6.77;3.43;;;;;;;6.32;77.18;101195.03;5076767;28;20227;-63
2022/04/10 08:44:26;;;;;;;7.87;3.43;;;;;;;6.74;74.57;101208.88;5079481;28;20207;-60
2022/04/10 08:46:54;;;;;;;7.47;3.97;;;;;;;6.78;73.54;101207.69;5084637;28;20293;-65
2022/04/10 08:49:25;;;;;;;9.10;3.50;;;;;;;7.07;73.33;101210.94;5077662;28;20218;-65
2022/04/10 08:51:54;;;;;;;8.43;3.70;;;;;;;7.21;72.50;101204.72;5081237;28;20298;-64
2022/04/10 08:54:22;;;;;;;7.63;3.33;;;;;;;6.96;72.63;101203.78;5076702;28;20206;-63
2022/04/10 08:56:51;;;;;;;9.10;3.93;;;;;;;7.04;73.90;101206.72;5078789;28;20777;-65
2022/04/10 08:59:20;;;;;;;9.27;4.10;;;;;;;7.37;72.38;101203.50;5078784;28;20207;-65
2022/04/10 09:01:52;;;;;;;7.30;3.50;;;;;;;6.48;76.15;101210.66;5079448;28;20688;-66
2022/04/10 09:04:21;;;;;;;6.93;3.87;;;;;;;6.51;76.58;101206.97;5076154;28;20204;-66
2022/04/10 09:06:58;;;;;;;8.53;3.83;;;;;;;6.90;74.06;101216.56;5079999;28;20242;-65
2022/04/10 09:09:26;;;;;;;9.03;3.70;;;;;;;6.48;76.59;101217.72;5073575;28;20210;-65
2022/04/10 09:11:56;;;;;;;8.47;4.40;;;;;;;6.53;75.28;101220.88;5076738;28;20239;-64
2022/04/10 09:14:24;;;;;;;8.03;4.20;;;;;;;7.02;73.29;101219.19;5076630;28;20207;-65
2022/04/10 09:17:17;;;;;;;10.10;4.17;;;;;;;6.70;75.65;101212.66;5078514;28;20211;-65
2022/04/10 09:19:46;;;;;;;13.47;4.00;;;;;;;7.20;74.83;101216.22;5057562;28;20579;-65
2022/04/10 09:22:27;;;;;;;8.63;3.83;;;;;;;6.48;76.50;101218.56;5072427;28;20603;-66
2022/04/10 09:25:12;;;;;;;6.43;3.53;;;;;;;6.19;78.19;101223.13;5075948;28;20244;-66
2022/04/10 09:27:43;;;;;;;6.47;3.77;;;;;;;6.87;75.80;101228.16;5077443;28;20269;-65
2022/04/10 09:30:14;;;;;;;12.23;4.00;;;;;;;7.21;74.09;101233.72;5075260;28;20294;-65
2022/04/10 09:32:47;;;;;;;10.00;4.20;;;;;;;6.88;73.44;101219.28;5077851;28;20227;-64
2022/04/10 09:35:16;;;;;;;8.33;4.00;;;;;;;6.68;74.28;101225.13;5075281;28;20736;-64
2022/04/10 09:37:48;;;;;;;8.63;4.20;;;;;;;6.66;74.78;101227.00;5074926;28;20223;-64
2022/04/10 09:40:27;;;;;;;12.80;4.40;;;;;;;6.38;76.17;101228.88;5072179;28;20735;-64
2022/04/10 09:43:01;;;;;;;9.03;4.17;;;;;;;6.62;74.99;101220.25;5081524;28;20223;-65
2022/04/10 09:45:35;;;;;;;7.23;3.73;;;;;;;6.75;74.20;101223.75;5082999;28;20290;-65
2022/04/10 09:48:28;;;;;;;8.20;4.40;;;;;;;6.99;74.25;101216.75;5077641;28;20677;-65
2022/04/10 09:51:05;;;;;;;9.37;4.47;;;;;;;7.40;73.90;101218.25;5077603;28;20257;-65
2022/04/10 09:53:33;;;;;;;11.93;4.20;;;;;;;8.09;70.47;101229.94;5077784;28;20222;-65
2022/04/10 09:56:02;;;;;;;8.20;3.73;;;;;;;8.22;69.71;101223.63;5087300;28;20595;-65
2022/04/10 09:58:32;;;;;;;8.80;3.73;;;;;;;8.64;68.42;101216.06;5078612;28;20230;-65
2022/04/10 10:01:03;;;;;;;9.47;4.07;;;;;;;8.07;69.46;101219.50;5084972;28;20203;-65
2022/04/10 10:03:44;;;;;;;9.37;4.40;;;;;;;10.96;61.52;101211.19;5078709;28;20220;-65
2022/04/10 10:06:12;;;;;;;6.77;3.70;;;;;;;11.66;56.72;101217.31;5078209;28;20209;-65
2022/04/10 10:08:40;;;;;;;7.37;3.40;;;;;;;10.69;58.48;101225.03;5077573;28;20207;-65
2022/04/10 10:11:09;;;;;;;9.57;4.33;;;;;;;9.88;60.38;101222.97;5078225;28;20267;-65
2022/04/10 10:13:39;;;;;;;5.63;3.13;;;;;;;9.53;64.38;101212.59;5070616;28;20705;-66
2022/04/10 10:16:08;;;;;;;9.30;3.80;;;;;;;9.43;65.21;101213.31;5080870;28;20203;-65
2022/04/10 10:18:38;;;;;;;6.80;3.77;;;;;;;8.33;68.31;101225.50;5077068;28;20211;-65
2022/04/10 10:21:09;;;;;;;7.00;3.80;;;;;;;8.18;69.17;101226.63;5069457;28;20809;-65
2022/04/10 10:23:37;;;;;;;7.83;4.10;;;;;;;7.62;71.09;101215.78;5069884;28;20268;-64
2022/04/10 10:26:18;;;;;;;9.47;4.00;;;;;;;7.32;72.25;101223.25;5073914;28;20643;-65
2022/04/10 10:29:15;;;;;;;8.17;3.77;;;;;;;7.41;72.41;101218.16;5079031;28;20651;-65
2022/04/10 10:31:55;;;;;;;10.33;4.93;;;;;;;7.24;73.94;101212.41;5073020;28;20198;-64
2022/04/10 10:34:26;;;;;;;7.27;4.87;;;;;;;7.47;74.56;101209.81;5078773;28;20231;-64
2022/04/10 10:36:58;;;;;;;11.40;4.73;;;;;;;7.82;71.87;101209.91;5077299;28;20234;-65
2022/04/10 10:39:30;;;;;;;10.50;5.00;;;;;;;7.87;72.78;101209.53;5082371;28;20206;-64
2022/04/10 10:42:15;;;;;;;12.47;5.50;;;;;;;8.20;70.61;101214.13;5077570;28;20237;-65
2022/04/10 10:44:49;;;;;;;9.23;5.67;;;;;;;8.92;68.27;101197.13;5071408;28;20204;-65
2022/04/10 10:47:19;;;;;;;8.40;4.87;;;;;;;8.41;69.44;101201.97;5081272;28;20209;-65
2022/04/10 10:49:48;;;;;;;8.50;5.40;;;;;;;9.67;65.45;101199.09;5081045;28;20218;-65
2022/04/10 10:52:16;;;;;;;10.13;5.30;;;;;;;10.43;63.15;101198.06;5083257;28;20260;-65
2022/04/10 10:54:46;;;;;;;12.00;6.17;;;;;;;10.14;63.85;101198.66;5083465;28;20209;-65
2022/04/10 10:57:28;;;;;;;9.23;5.77;;;;;;;9.93;63.77;101197.78;5077088;28;20207;-65
2022/04/10 11:00:21;;;;;;;9.77;5.67;;;;;;;10.70;60.46;101194.88;5082408;28;20684;-64
2022/04/10 11:02:51;;;;;;;8.53;5.70;;;;;;;10.33;61.50;101197.16;5067605;28;20693;-64
2022/04/10 11:05:29;;;;;;;8.90;5.87;;;;;;;11.17;59.09;101196.09;5089687;28;20634;-65
2022/04/10 11:08:03;;;;;;;9.10;5.80;;;;;;;12.31;56.05;101201.72;5083871;28;20217;-64
2022/04/10 11:10:33;;;;;;;8.63;5.27;;;;;;;11.19;58.22;101180.84;5078295;28;20412;-65
2022/04/10 11:13:02;;;;;;;9.37;5.27;;;;;;;14.58;49.98;101183.06;5074120;28;20203;-65
2022/04/10 11:15:33;;;;;;;8.07;5.37;;;;;;;14.95;47.15;101180.94;5080436;28;20499;-65
2022/04/10 11:18:32;;;;;;;9.10;5.97;;;;;;;15.33;45.89;101171.59;5089426;28;20718;-66
2022/04/10 11:21:10;;;;;;;9.40;5.60;;;;;;;19.13;38.64;101162.97;5084479;28;20214;-65
2022/04/10 11:23:59;;;;;;;11.43;5.17;;;;;;;22.02;33.45;101152.66;5084829;28;20615;-66
2022/04/10 11:26:35;;;;;;;10.30;5.50;;;;;;;23.42;31.78;101154.88;5086456;28;20207;-65
2022/04/10 11:29:05;;;;;;;8.88;5.20;;;;;;;23.39;30.29;101140.97;5079835;28;20206;-66
2022/04/10 11:31:36;;;;;;;7.85;4.70;;;;;;;17.33;40.01;101155.75;5078819;28;20250;-66
2022/04/10 11:34:11;;;;;;;8.82;5.32;;;;;;;20.33;35.60;101155.13;5080847;28;20207;-64
2022/04/10 11:36:52;;;;;;;6.38;4.65;;;;;;;19.77;35.49;101146.97;5080581;28;20230;-64
2022/04/10 11:39:41;;;;;;;9.30;5.50;;;;;;;15.63;42.86;101154.16;5082492;28;20498;-65
2022/04/10 11:42:09;;;;;;;7.88;5.40;;;;;;;14.53;46.31;101148.84;5084769;28;20714;-65
2022/04/10 11:44:37;;;;;;;8.60;5.80;;;;;;;12.78;50.51;101147.53;5084867;28;20231;-64
2022/04/10 11:47:08;;;;;;;10.57;5.88;;;;;;;11.66;53.93;101148.25;5084291;28;20202;-64